Flight Track Log - Related Links

Times and Time Zones

All times are in EDT time to prevent confusion due to time zone crossing. See the CHQ6036 flight status page for this flight to view local times or setup timezone preferences in your user account.

Time Position Orientation Groundspeed Altitude Reporting Facility
EDT Latitude Longitude Course Direction KTS MPH feet Rate Location/Type
Sat 06:02:14 PM 32.8183 -80.0031 352° North 206 237 3,800  Level Jacksonville Center
Sat 06:03:15 PM 32.8700 -79.9842 17° North 141 162 5,300 1,650 Climbing Jacksonville Center
Sat 06:04:14 PM 32.9333 -80.0192 335° Northwest 120 138 7,100 1,900 Climbing Jacksonville Center
Sat 06:05:00 PM 33.3810 -80.2738 337° Northwest  Level FlightAware Approximate
Sat 06:05:15 PM 32.9992 -80.0592 333° Northwest 203 234 9,100  Level Jacksonville Center
Sat 06:06:00 PM 33.4804 -80.3235 337° Northwest  Level FlightAware Approximate
Sat 06:06:15 PM 33.0689 -80.0967 336° Northwest 247 284 10,700  Level Jacksonville Center
Sat 06:07:00 PM 33.5831 -80.3583 352° North  Level FlightAware Approximate
Sat 06:07:14 PM 33.1444 -80.1264 342° North 289 333 11,800  Level Jacksonville Center
Sat 06:08:14 PM 33.2422 -80.1136 North 308 354 13,000 1,200 Climbing Jacksonville Center
Sat 06:09:14 PM 33.3261 -80.1208 356° North 323 372 14,200 1,150 Climbing Jacksonville Center
Sat 06:10:14 PM 33.4203 -80.1403 350° North 328 377 15,300 950 Climbing Jacksonville Center
Sat 06:11:14 PM 33.5125 -80.1622 349° North 334 384 16,100 1,000 Climbing Jacksonville Center
Sat 06:12:14 PM 33.6092 -80.1817 350° North 334 384 17,300 1,300 Climbing Jacksonville Center
Sat 06:13:14 PM 33.7033 -80.2014 350° North 334 384 18,700 1,450 Climbing Jacksonville Center
Sat 06:14:14 PM 33.7936 -80.2211 350° North 334 384 20,200 1,500 Climbing Jacksonville Center
Sat 06:15:14 PM 33.8836 -80.2408 350° North 334 384 21,700 1,400 Climbing Jacksonville Center
Sat 06:16:14 PM 33.9697 -80.2608 349° North 329 379 23,000 1,150 Climbing Jacksonville Center
Sat 06:17:14 PM 34.0597 -80.2806 350° North 329 379 24,000 1,000 Climbing Jacksonville Center
Sat 06:18:14 PM 34.1500 -80.3006 350° North 324 373 25,000 1,000 Climbing Jacksonville Center
Sat 06:19:14 PM 34.2422 -80.3203 350° North 329 379 26,000 800 Climbing Jacksonville Center
Sat 06:20:14 PM 34.3383 -80.3378 351° North 339 390 26,600 750 Climbing Jacksonville Center
Sat 06:21:14 PM 34.4347 -80.3625 348° North 345 397 27,500 950 Climbing Jacksonville Center
Sat 06:22:14 PM 34.5333 -80.3822 351° North 350 403 28,500 1,021 Climbing Jacksonville Center
Sat 06:24:22 PM 34.7450 -80.4317 349° North 340 391 30,700 1,021 Climbing Atlanta Center
Sat 06:25:22 PM 34.8417 -80.4528 350° North 346 398 31,700 875 Climbing Atlanta Center
Sat 06:27:00 PM 35.0160 -80.4868 351° North  Level FlightAware Approximate
Sat 06:28:22 PM 35.1064 -80.5097 351° North 335 386 34,200  Level Atlanta Center
Sat 06:29:22 PM 35.1944 -80.5289 350° North 335 386 34,600 500 Climbing Atlanta Center
Sat 06:30:22 PM 35.2869 -80.5478 351° North 330 380 35,200 550 Climbing Atlanta Center
Sat 06:31:22 PM 35.3750 -80.5697 349° North 330 380 35,700 400 Climbing Atlanta Center
Sat 06:32:22 PM 35.4653 -80.5886 350° North 330 380 36,000 150 Climbing Atlanta Center
Sat 06:33:22 PM 35.5661 -80.6100 350° North 335 386 36,000  Level Atlanta Center
Sat 06:34:22 PM 35.6625 -80.6317 350° North 340 391 36,000  Level Atlanta Center
Sat 06:35:22 PM 35.7656 -80.6553 349° North 354 407 36,000  Level Atlanta Center
Sat 06:36:22 PM 35.8706 -80.6817 348° North 372 428 36,000  Level Atlanta Center
Sat 06:37:22 PM 35.9775 -80.7056 350° North 381 438 36,000  Level Atlanta Center
Sat 06:38:22 PM 36.0908 -80.7317 349° North 398 458 36,000  Level Atlanta Center
Sat 06:39:22 PM 36.2000 -80.7531 351° North 404 465 36,000  Level Atlanta Center
Sat 06:40:22 PM 36.3092 -80.7794 349° North 404 465 36,000  Level Atlanta Center
Sat 06:41:22 PM 36.4181 -80.8033 350° North 394 453 36,000  Level Atlanta Center
Sat 06:42:22 PM 36.5294 -80.8300 349° North 394 453 36,000  Level Atlanta Center
Sat 06:44:27 PM 36.7475 -80.8825 349° North 404 465 36,000  Level Indianapolis Center
Sat 06:45:29 PM 36.8564 -80.9086 349° North 406 467 36,000  Level Indianapolis Center
Sat 06:46:30 PM 36.9883 -80.9392 350° North 411 473 36,000  Level Indianapolis Center
Sat 06:47:31 PM 37.0992 -80.9658 349° North 413 475 36,000  Level Indianapolis Center
Sat 06:48:33 PM 37.2092 -80.9933 349° North 413 475 36,000  Level Indianapolis Center
Sat 06:49:34 PM 37.3203 -81.0186 350° North 414 476 36,000  Level Indianapolis Center
Sat 06:50:35 PM 37.4528 -81.0517 349° North 414 476 36,000  Level Indianapolis Center
Sat 06:51:37 PM 37.5650 -81.0800 349° North 418 481 36,000  Level Indianapolis Center
Sat 06:52:38 PM 37.6750 -81.1086 348° North 414 476 36,000  Level Indianapolis Center
Sat 06:53:39 PM 37.7869 -81.1381 348° North 420 483 36,000  Level Indianapolis Center
Sat 06:54:41 PM 37.8997 -81.1692 348° North 421 484 36,000  Level Indianapolis Center
Sat 06:55:42 PM 38.0361 -81.2056 348° North 418 481 36,000  Level Indianapolis Center
Sat 06:56:43 PM 38.1492 -81.2397 347° North 415 478 36,000  Level Indianapolis Center
Sat 06:57:44 PM 38.2350 -81.3125 326° Northwest 373 429 36,000  Level Indianapolis Center
Sat 06:58:46 PM 38.3431 -81.3556 343° North 405 466 36,000  Level Indianapolis Center
Sat 06:59:47 PM 38.4525 -81.3947 344° North 409 471 36,000  Level Indianapolis Center
Sat 07:00:48 PM 38.5633 -81.4347 344° North 413 475 36,000  Level Indianapolis Center
Sat 07:01:50 PM 38.6819 -81.4775 344° North 409 471 36,000  Level Indianapolis Center
Sat 07:02:51 PM 38.7950 -81.5183 344° North 414 476 36,000  Level Indianapolis Center
Sat 07:03:52 PM 38.9136 -81.5617 344° North 423 487 36,000  Level Indianapolis Center
Sat 07:04:53 PM 39.0264 -81.6036 344° North 423 487 36,000  Level Indianapolis Center
Sat 07:05:55 PM 39.1403 -81.6450 344° North 424 488 36,000  Level Indianapolis Center
Sat 07:06:56 PM 39.2550 -81.6864 344° North 429 494 36,000 -49 Level Indianapolis Center
Sat 07:07:57 PM 39.3683 -81.7278 344° North 423 487 35,900 -393 Descending Indianapolis Center
Sat 07:08:58 PM 39.4836 -81.7719 344° North 430 495 35,200 -439 Descending Indianapolis Center
Sat 07:10:00 PM 39.5989 -81.8181 343° North 434 499 35,000 -195 Descending Indianapolis Center
Sat 07:11:01 PM 39.7183 -81.8619 344° North 433 498 34,800 -492 Descending Indianapolis Center
Sat 07:12:02 PM 39.8422 -81.8858 352° North 445 512 34,000 -393 Descending Indianapolis Center
Sat 07:13:03 PM 39.9656 -81.9078 352° North 445 512 34,000 -146 Level Indianapolis Center
Sat 07:14:05 PM 40.1089 -81.9333 352° North 443 510 33,700 -634 Descending Indianapolis Center
Sat 07:15:06 PM 40.2325 -81.9547 352° North 443 510 32,700 -1,033 Descending Indianapolis Center
Sat 07:16:07 PM 40.3431 -81.9747 352° North 441 507 31,600 -1,184 Descending Indianapolis Center
Sat 07:16:22 PM 40.3858 -81.9814 353° North 449 517 31,200 -1,200 Descending Cleveland Center
Sat 07:17:22 PM 40.5106 -82.0086 351° North 449 517 30,100 -600 Descending Cleveland Center
Sat 07:18:22 PM 40.6225 -82.0686 338° Northwest 437 503 30,000 -50 Descending Cleveland Center
Sat 07:19:22 PM 40.7319 -82.1394 334° Northwest 432 497 30,000  Level Cleveland Center
Sat 07:20:22 PM 40.8292 -82.2022 334° Northwest 437 503 30,000 -650 Level Cleveland Center
Sat 07:21:22 PM 40.9406 -82.2736 334° Northwest 443 510 28,700 -1,700 Descending Cleveland Center
Sat 07:22:22 PM 41.0500 -82.3425 335° Northwest 438 504 26,600 -2,300 Descending Cleveland Center
Sat 07:23:22 PM 41.1614 -82.4117 335° Northwest 438 504 24,100 -2,450 Descending Cleveland Center
Sat 07:24:22 PM 41.2792 -82.4897 334° Northwest 438 504 21,700 -2,400 Descending Cleveland Center
Sat 07:25:22 PM 41.3803 -82.5536 335° Northwest 422 486 19,300 -2,414 Descending Cleveland Center
Sat 07:25:49 PM 41.4275 -82.5853 333° Northwest 415 478 18,200 -2,400 Descending Cleveland Center
Sat 07:26:22 PM 41.4833 -82.6203 335° Northwest 412 474 16,900 -2,374 Descending Cleveland Center
Sat 07:27:20 PM 41.5758 -82.6844 333° Northwest 388 447 14,600 -2,304 Descending Cleveland Center
Sat 07:28:14 PM 41.6625 -82.7400 334° Northwest 374 430 12,600 -1,357 Descending Cleveland Center
Sat 07:29:15 PM 41.7486 -82.8069 330° Northwest 347 399 12,000 -257 Descending Cleveland Center
Sat 07:30:34 PM 41.8422 -82.9189 318° Northwest 351 404 12,000  Level Cleveland Center
Sat 07:31:22 PM 41.8992 -82.9878 318° Northwest 353 406 12,000 -111 Level Cleveland Center
Sat 07:32:22 PM 41.9883 -83.0219 344° North 330 380 11,800 -563 Descending Cleveland Center
Sat 07:33:30 PM 42.0900 -83.0428 351° North 293 337 10,800 -1,200 Descending Cleveland Center
Sat 07:34:22 PM 42.1500 -83.0592 349° North 299 344 9,400 -1,607 Descending Cleveland Center
Sat 07:35:22 PM 42.2206 -83.0758 350° North 273 314 7,800 -1,440 Descending Cleveland Center
Sat 07:35:37 PM 42.2411 -83.0822 347° North 259 298 7,600 -1,629 Descending Cleveland Center
Sat 07:36:32 PM 42.2947 -83.1094 339° North 214 246 5,900 -2,092 Descending Cleveland Center
Sat 07:37:26 PM 42.3269 -83.1669 307° West 191 220 3,800 -1,541 Descending Cleveland Center
Sat 07:38:21 PM 42.3464 -83.2242 295° West 196 226 3,100 -595 Descending Cleveland Center
Sat 07:39:27 PM 42.2972 -83.2753 218° Southwest 192 221 2,600 -709 Descending Cleveland Center
Sat 07:40:28 PM 42.2569 -83.3072 210° Southwest 155 178 1,600 -879 Descending Cleveland Center
Sat 07:41:23 PM 42.2231 -83.3311 208° Southwest 150 173 900 -764 Descending Cleveland Center

Login

Don't have an account? Register now (free) for customized features, flight alerts, and more!